createdAt,value
2022-09-29T00:00:32.087Z,23.55
2022-09-29T00:01:21.599Z,23.53
2022-09-29T00:02:15.520Z,23.48
2022-09-29T00:03:06.447Z,23.56
2022-09-29T00:03:55.315Z,23.59
2022-09-29T00:04:44.854Z,23.59
2022-09-29T00:05:36.486Z,23.62
2022-09-29T00:06:28.017Z,23.62
2022-09-29T00:07:24.384Z,23.58
2022-09-29T00:08:21.819Z,23.65
2022-09-29T00:10:31.726Z,23.65
2022-09-29T00:11:20.733Z,23.67
2022-09-29T00:13:42.706Z,23.56
2022-09-29T00:14:34.987Z,23.61
2022-09-29T00:15:23.458Z,23.62
2022-09-29T00:16:17.796Z,23.62
2022-09-29T00:17:07.595Z,23.62
2022-09-29T00:18:13.091Z,23.58
2022-09-29T00:19:06.025Z,23.62
2022-09-29T00:19:52.695Z,23.60
2022-09-29T00:20:42.889Z,23.61
2022-09-29T00:21:32.291Z,23.55
2022-09-29T00:22:23.837Z,23.54
2022-09-29T00:24:16.854Z,23.52
2022-09-29T00:25:07.302Z,23.57
2022-09-29T00:25:57.366Z,23.58
2022-09-29T00:26:47.047Z,23.54
2022-09-29T00:27:37.256Z,23.54
2022-09-29T00:29:29.996Z,23.56
2022-09-29T00:30:17.572Z,23.56
2022-09-29T00:30:57.427Z,23.58
2022-09-29T00:31:48.654Z,23.60
2022-09-29T00:32:35.806Z,23.60
2022-09-29T00:33:32.728Z,23.57
2022-09-29T00:34:21.278Z,23.61
2022-09-29T00:35:13.398Z,23.60
2022-09-29T00:36:06.660Z,23.60
2022-09-29T00:36:50.332Z,23.59
2022-09-29T00:37:35.208Z,23.59
2022-09-29T00:38:22.094Z,23.57
2022-09-29T00:39:07.789Z,23.59
2022-09-29T00:39:58.841Z,23.59
2022-09-29T00:40:45.332Z,23.60
2022-09-29T00:41:37.933Z,23.59
2022-09-29T00:42:26.746Z,23.60
2022-09-29T00:43:15.223Z,23.57
2022-09-29T00:44:10.723Z,23.57
2022-09-29T00:45:06.063Z,23.56
2022-09-29T00:45:55.861Z,23.57
2022-09-29T00:46:58.360Z,23.58
2022-09-29T00:47:45.719Z,23.58
2022-09-29T00:49:36.262Z,23.38
2022-09-29T00:50:23.353Z,23.48
2022-09-29T00:51:13.774Z,23.43
2022-09-29T00:51:56.024Z,23.48
2022-09-29T00:52:54.112Z,23.44
2022-09-29T00:53:45.077Z,23.39
2022-09-29T00:54:32.683Z,23.43
2022-09-29T00:55:27.091Z,23.44
2022-09-29T00:56:13.677Z,23.40
2022-09-29T00:57:04.992Z,23.43
2022-09-29T00:57:53.683Z,23.42
2022-09-29T00:58:42.526Z,23.47
2022-09-29T00:59:52.797Z,23.46
2022-09-29T01:00:41.801Z,23.42
2022-09-29T01:01:30.942Z,23.43
2022-09-29T01:02:20.099Z,23.41
2022-09-29T01:03:07.052Z,23.39
2022-09-29T01:03:52.806Z,23.38
2022-09-29T01:04:43.366Z,23.36
2022-09-29T01:05:28.781Z,23.33
2022-09-29T01:06:16.423Z,23.33
2022-09-29T01:07:03.112Z,23.33
2022-09-29T01:07:52.240Z,23.33
2022-09-29T01:08:48.404Z,23.38
2022-09-29T01:09:38.023Z,23.44
2022-09-29T01:10:28.829Z,23.50
2022-09-29T01:11:16.966Z,23.51
2022-09-29T01:12:12.077Z,23.48
2022-09-29T01:13:03.236Z,23.44
2022-09-29T01:13:52.045Z,23.48
2022-09-29T01:14:42.985Z,23.43
2022-09-29T01:15:33.886Z,23.46
2022-09-29T01:16:25.441Z,23.40
2022-09-29T01:17:21.072Z,23.45
2022-09-29T01:18:10.789Z,23.44
2022-09-29T01:18:59.210Z,23.42
2022-09-29T01:19:46.220Z,23.39
2022-09-29T01:20:37.382Z,23.44
2022-09-29T01:21:17.311Z,23.50
2022-09-29T01:22:06.572Z,23.52
2022-09-29T01:23:09.188Z,23.52
2022-09-29T01:23:54.991Z,23.45
2022-09-29T01:24:41.050Z,23.46
2022-09-29T01:25:22.356Z,23.43
2022-09-29T01:26:10.623Z,23.48
2022-09-29T01:27:12.546Z,23.48
2022-09-29T01:28:17.336Z,23.50
2022-09-29T01:29:07.836Z,23.52
2022-09-29T01:29:49.810Z,23.51
2022-09-29T01:30:53.967Z,23.47
2022-09-29T01:31:41.636Z,23.51
2022-09-29T01:32:42.111Z,23.46
2022-09-29T01:33:31.783Z,23.47
2022-09-29T01:34:26.470Z,23.50
2022-09-29T01:35:13.695Z,23.50
2022-09-29T01:35:57.151Z,23.50
2022-09-29T01:36:44.948Z,23.45
2022-09-29T01:37:26.689Z,23.42
2022-09-29T01:38:08.807Z,23.40
2022-09-29T01:38:54.572Z,23.33
2022-09-29T01:39:45.180Z,23.33
2022-09-29T01:40:58.397Z,23.33
2022-09-29T01:41:52.667Z,23.38
2022-09-29T01:42:42.275Z,23.38
2022-09-29T01:43:56.567Z,23.31
2022-09-29T01:44:47.146Z,23.29
2022-09-29T01:45:29.144Z,23.27
2022-09-29T01:46:22.169Z,23.28
2022-09-29T01:47:19.300Z,23.27
2022-09-29T01:48:05.649Z,23.26
2022-09-29T01:48:54.281Z,23.32
2022-09-29T01:49:45.603Z,23.34
2022-09-29T01:50:36.467Z,23.39
2022-09-29T01:51:23.649Z,23.44
2022-09-29T01:52:06.701Z,23.45
2022-09-29T01:52:54.352Z,23.46
2022-09-29T01:53:44.161Z,23.46
2022-09-29T01:54:40.611Z,23.46
2022-09-29T01:55:28.341Z,23.38
2022-09-29T01:56:15.254Z,23.34
2022-09-29T01:57:39.504Z,23.34
2022-09-29T01:58:29.205Z,23.37
2022-09-29T01:59:18.430Z,23.37
2022-09-29T02:00:29.244Z,23.37
2022-09-29T02:01:16.318Z,23.44
2022-09-29T02:02:01.577Z,23.43
2022-09-29T02:02:52.028Z,23.46
2022-09-29T02:04:01.517Z,23.47
2022-09-29T02:04:48.747Z,23.49
2022-09-29T02:05:35.400Z,23.48
2022-09-29T02:06:26.878Z,23.49
2022-09-29T02:07:14.220Z,23.43
2022-09-29T02:08:04.423Z,23.37
2022-09-29T02:09:10.887Z,23.40
2022-09-29T02:10:00.220Z,23.35
2022-09-29T02:10:50.702Z,23.33
2022-09-29T02:11:37.688Z,23.33
2022-09-29T02:12:26.040Z,23.35
2022-09-29T02:13:16.096Z,23.37
2022-09-29T02:14:04.499Z,23.38
2022-09-29T02:15:00.789Z,23.35
2022-09-29T02:15:54.216Z,23.31
2022-09-29T02:16:44.050Z,23.28
2022-09-29T02:17:35.024Z,23.31
2022-09-29T02:18:22.432Z,23.28
2022-09-29T02:19:12.013Z,23.30
2022-09-29T02:20:06.078Z,23.31
2022-09-29T02:20:51.322Z,23.30
2022-09-29T02:21:40.833Z,23.28
2022-09-29T02:22:27.459Z,23.29
2022-09-29T02:23:14.668Z,23.29
2022-09-29T02:24:02.183Z,23.31
2022-09-29T02:24:48.785Z,23.36
2022-09-29T02:25:41.320Z,23.34
2022-09-29T02:26:26.782Z,23.35
2022-09-29T02:27:17.229Z,23.34
2022-09-29T02:28:05.338Z,23.33
2022-09-29T02:28:52.453Z,23.30
2022-09-29T02:29:39.709Z,23.31
2022-09-29T02:30:23.663Z,23.31
2022-09-29T02:31:12.990Z,23.32
2022-09-29T02:32:08.155Z,23.33
2022-09-29T02:33:02.556Z,23.38
2022-09-29T02:33:54.960Z,23.36
2022-09-29T02:34:43.653Z,23.42
2022-09-29T02:35:26.845Z,23.42
2022-09-29T02:36:20.435Z,23.35
2022-09-29T02:37:23.661Z,23.45
2022-09-29T02:38:19.492Z,23.45
2022-09-29T02:39:36.070Z,23.44
2022-09-29T02:40:49.091Z,23.42
2022-09-29T02:42:03.549Z,23.35
2022-09-29T02:42:51.832Z,23.40
2022-09-29T02:43:45.953Z,23.37
2022-09-29T02:44:36.885Z,23.37
2022-09-29T02:45:14.510Z,23.34
2022-09-29T02:46:08.529Z,23.32
2022-09-29T02:47:03.698Z,23.33
2022-09-29T02:48:07.888Z,23.31
2022-09-29T02:49:14.094Z,23.25
2022-09-29T02:50:03.477Z,23.26
2022-09-29T02:51:07.205Z,23.29
2022-09-29T02:52:00.474Z,23.28
2022-09-29T02:52:58.195Z,23.26
2022-09-29T02:53:42.225Z,23.28
2022-09-29T02:54:27.768Z,23.31
2022-09-29T02:55:30.406Z,23.27
2022-09-29T02:56:29.328Z,23.30
2022-09-29T02:57:38.422Z,23.35
2022-09-29T02:58:28.649Z,23.34
2022-09-29T02:59:28.040Z,23.40
2022-09-29T03:00:39.986Z,23.35
2022-09-29T03:01:32.180Z,23.35
2022-09-29T03:02:28.468Z,23.32
2022-09-29T03:03:17.722Z,23.40
2022-09-29T03:04:12.739Z,23.35
2022-09-29T03:05:03.150Z,23.28
2022-09-29T03:05:56.589Z,23.29
2022-09-29T03:06:46.664Z,23.32
2022-09-29T03:08:39.460Z,23.35
2022-09-29T03:09:31.653Z,23.31
2022-09-29T03:10:30.236Z,23.32
2022-09-29T03:11:22.526Z,23.40
2022-09-29T03:12:13.689Z,23.40
2022-09-29T03:13:11.149Z,23.34
2022-09-29T03:14:01.901Z,23.28
2022-09-29T03:14:46.233Z,23.31
2022-09-29T03:15:40.886Z,23.30
2022-09-29T03:16:28.337Z,23.37
2022-09-29T03:17:17.065Z,23.42
2022-09-29T03:18:10.205Z,23.37
2022-09-29T03:19:00.444Z,23.29
2022-09-29T03:19:51.909Z,23.28
2022-09-29T03:20:46.182Z,23.30
2022-09-29T03:21:34.931Z,23.28
2022-09-29T03:22:22.231Z,23.28
2022-09-29T03:23:15.975Z,23.32
2022-09-29T03:24:10.361Z,23.31
2022-09-29T03:25:07.547Z,23.25
2022-09-29T03:26:00.751Z,23.27
2022-09-29T03:26:54.379Z,23.26
2022-09-29T03:27:47.963Z,23.27
2022-09-29T03:28:41.345Z,23.29
2022-09-29T03:29:35.487Z,23.29
2022-09-29T03:30:37.152Z,23.34
2022-09-29T03:31:32.613Z,23.37
2022-09-29T03:32:24.399Z,23.38
2022-09-29T03:33:17.709Z,23.36
2022-09-29T03:34:11.935Z,23.41
2022-09-29T03:35:06.268Z,23.43
2022-09-29T03:36:08.279Z,23.44
2022-09-29T03:37:01.734Z,23.43
2022-09-29T03:37:56.751Z,23.44
2022-09-29T03:38:50.959Z,23.45
2022-09-29T03:39:46.618Z,23.45
2022-09-29T03:40:42.710Z,23.42
2022-09-29T03:41:33.276Z,23.44
2022-09-29T03:42:23.957Z,23.37
2022-09-29T03:43:17.427Z,23.41
2022-09-29T03:44:07.975Z,23.34
2022-09-29T03:44:59.807Z,23.31
2022-09-29T03:45:55.776Z,23.40
2022-09-29T03:46:47.385Z,23.41
2022-09-29T03:47:39.500Z,23.34
2022-09-29T03:48:31.480Z,23.28
2022-09-29T03:49:27.348Z,23.33
2022-09-29T03:50:19.331Z,23.33
2022-09-29T03:51:16.868Z,23.34
2022-09-29T03:52:09.085Z,23.35
2022-09-29T03:53:00.186Z,23.39
2022-09-29T03:53:51.358Z,23.40
2022-09-29T03:54:40.129Z,23.30
2022-09-29T03:55:31.625Z,23.31
2022-09-29T03:56:27.509Z,23.31
2022-09-29T03:57:22.226Z,23.28
2022-09-29T03:58:06.946Z,23.28
2022-09-29T03:59:35.165Z,23.26
2022-09-29T04:00:25.933Z,23.22
2022-09-29T04:01:27.251Z,23.17
2022-09-29T04:02:20.100Z,23.17
2022-09-29T04:03:13.630Z,23.19
2022-09-29T04:04:06.216Z,23.18
2022-09-29T04:04:56.436Z,23.28
2022-09-29T04:05:46.591Z,23.26
2022-09-29T04:07:39.679Z,23.34
2022-09-29T04:08:33.586Z,23.36
2022-09-29T04:09:27.166Z,23.31
2022-09-29T04:10:11.412Z,23.29
2022-09-29T04:11:05.294Z,23.31
2022-09-29T04:11:59.936Z,23.31
2022-09-29T04:12:53.085Z,23.32
2022-09-29T04:13:46.377Z,23.35
2022-09-29T04:14:40.816Z,23.33
2022-09-29T04:15:34.647Z,23.25
2022-09-29T04:16:27.401Z,23.25
2022-09-29T04:17:25.922Z,23.24
2022-09-29T04:18:17.463Z,23.24
2022-09-29T04:19:06.367Z,23.24
2022-09-29T04:19:55.622Z,23.23
2022-09-29T04:20:45.497Z,23.26
2022-09-29T04:21:42.894Z,23.29
2022-09-29T04:22:37.808Z,23.28
2022-09-29T04:23:31.723Z,23.29
2022-09-29T04:24:25.572Z,23.29
2022-09-29T04:25:18.685Z,23.31
2022-09-29T04:26:16.472Z,23.37
2022-09-29T04:27:10.554Z,23.37
2022-09-29T04:28:03.609Z,23.26
2022-09-29T04:29:35.797Z,23.23
2022-09-29T04:30:24.167Z,23.22
2022-09-29T04:31:17.756Z,23.20
2022-09-29T04:32:06.441Z,23.19
2022-09-29T04:32:57.480Z,23.29
2022-09-29T04:33:47.963Z,23.35
2022-09-29T04:34:36.926Z,23.39
2022-09-29T04:35:28.731Z,23.39
2022-09-29T04:36:22.706Z,23.37
2022-09-29T04:37:13.429Z,23.39
2022-09-29T04:38:00.751Z,23.40
2022-09-29T04:38:51.147Z,23.38
2022-09-29T04:39:42.707Z,23.40
2022-09-29T04:40:35.250Z,23.39
2022-09-29T04:41:28.783Z,23.37
2022-09-29T04:42:21.742Z,23.33
2022-09-29T04:43:09.273Z,23.38
2022-09-29T04:44:01.413Z,23.35
2022-09-29T04:44:56.985Z,23.32
2022-09-29T04:45:48.301Z,23.35
2022-09-29T04:46:39.579Z,23.35
2022-09-29T04:47:30.224Z,23.39
2022-09-29T04:48:16.928Z,23.37
2022-09-29T04:49:08.982Z,23.41
2022-09-29T04:50:00.369Z,23.42
2022-09-29T04:50:53.489Z,23.40
2022-09-29T04:51:50.657Z,23.35
2022-09-29T04:52:40.975Z,23.28
2022-09-29T04:53:34.188Z,23.26
2022-09-29T04:54:22.427Z,23.33
2022-09-29T04:55:14.943Z,23.38
2022-09-29T04:56:09.949Z,23.36
2022-09-29T04:58:09.014Z,23.22
2022-09-29T04:59:01.450Z,23.24
2022-09-29T04:59:52.647Z,23.23
2022-09-29T05:00:44.963Z,23.26
2022-09-29T05:01:38.301Z,23.27
2022-09-29T05:02:32.123Z,23.30
2022-09-29T05:03:22.724Z,23.28
2022-09-29T05:04:10.852Z,23.26
2022-09-29T05:04:59.787Z,23.33
2022-09-29T05:05:51.638Z,23.34
2022-09-29T05:06:44.303Z,23.38
2022-09-29T05:07:40.495Z,23.42
2022-09-29T05:08:32.771Z,23.36
2022-09-29T05:09:26.424Z,23.38
2022-09-29T05:10:19.272Z,23.36
2022-09-29T05:11:11.220Z,23.38
2022-09-29T05:12:13.347Z,23.42
2022-09-29T05:13:02.099Z,23.38
2022-09-29T05:13:51.432Z,23.30
2022-09-29T05:14:44.053Z,23.29
2022-09-29T05:15:34.993Z,23.26
2022-09-29T05:16:24.134Z,23.35
2022-09-29T05:17:18.725Z,23.36
2022-09-29T05:18:11.526Z,23.38
2022-09-29T05:19:01.756Z,23.40
2022-09-29T05:19:52.358Z,23.40
2022-09-29T05:20:44.850Z,23.38
2022-09-29T05:21:39.797Z,23.36
2022-09-29T05:22:38.011Z,23.30
2022-09-29T05:23:30.019Z,23.33
2022-09-29T05:24:20.985Z,23.38
2022-09-29T05:25:12.036Z,23.40
2022-09-29T05:26:02.089Z,23.39
2022-09-29T05:26:57.537Z,23.40
2022-09-29T05:27:53.449Z,23.41
2022-09-29T05:28:44.118Z,23.42
2022-09-29T05:29:36.982Z,23.42
2022-09-29T05:30:31.617Z,23.41
2022-09-29T05:31:25.896Z,23.41
2022-09-29T05:32:13.332Z,23.42
2022-09-29T05:33:08.496Z,23.43
2022-09-29T05:33:58.381Z,23.43
2022-09-29T05:34:52.684Z,23.44
2022-09-29T05:35:43.223Z,23.44
2022-09-29T05:36:38.364Z,23.39
2022-09-29T05:37:31.285Z,23.43
2022-09-29T05:38:23.724Z,23.42
2022-09-29T05:39:12.812Z,23.43
2022-09-29T05:40:03.061Z,23.42
2022-09-29T05:40:55.439Z,23.45
2022-09-29T05:41:50.154Z,23.45
2022-09-29T05:42:41.239Z,23.41
2022-09-29T05:43:31.150Z,23.35
2022-09-29T05:44:22.590Z,23.37
2022-09-29T05:45:15.336Z,23.32
2022-09-29T05:46:11.187Z,23.33
2022-09-29T05:47:11.066Z,23.28
2022-09-29T05:48:05.634Z,23.34
2022-09-29T05:49:38.136Z,23.40
2022-09-29T05:50:32.975Z,23.35
2022-09-29T05:51:26.504Z,23.34
2022-09-29T05:52:20.317Z,23.31
2022-09-29T05:54:11.266Z,23.34
2022-09-29T05:55:03.951Z,23.32
2022-09-29T05:55:57.923Z,23.28
2022-09-29T05:56:56.071Z,23.25
2022-09-29T05:57:44.025Z,23.33
2022-09-29T05:58:37.321Z,23.33
2022-09-29T05:59:29.787Z,23.28
2022-09-29T06:00:22.610Z,23.29
2022-09-29T06:01:13.348Z,23.26
2022-09-29T06:02:10.575Z,23.31
2022-09-29T06:03:02.963Z,23.30
2022-09-29T06:03:56.848Z,23.29
2022-09-29T06:04:50.080Z,23.25
2022-09-29T06:05:42.361Z,23.22
2022-09-29T06:06:35.364Z,23.20
2022-09-29T06:07:38.638Z,23.21
2022-09-29T06:08:32.576Z,23.19
2022-09-29T06:09:26.537Z,23.24
2022-09-29T06:10:19.830Z,23.32
2022-09-29T06:11:13.619Z,23.39
2022-09-29T06:12:06.407Z,23.38
2022-09-29T06:13:00.468Z,23.37
2022-09-29T06:13:50.414Z,23.33
2022-09-29T06:14:43.440Z,23.29
2022-09-29T06:15:37.146Z,23.28
2022-09-29T06:16:34.892Z,23.18
2022-09-29T06:17:30.208Z,23.23
2022-09-29T06:18:24.219Z,23.20
2022-09-29T06:19:15.999Z,23.16
2022-09-29T06:20:10.550Z,23.14
2022-09-29T06:21:01.457Z,23.17
2022-09-29T06:21:59.799Z,23.21
2022-09-29T06:22:51.985Z,23.19
2022-09-29T06:23:44.941Z,23.18
2022-09-29T06:24:36.464Z,23.17
2022-09-29T06:25:32.399Z,23.18
2022-09-29T06:26:24.670Z,23.16
2022-09-29T06:28:20.913Z,23.21
2022-09-29T06:29:09.975Z,23.19
2022-09-29T06:30:04.423Z,23.20
2022-09-29T06:30:57.543Z,23.21
2022-09-29T06:31:52.406Z,23.18
2022-09-29T06:32:39.738Z,23.17
2022-09-29T06:33:36.952Z,23.15
2022-09-29T06:34:30.585Z,23.16
2022-09-29T06:35:24.638Z,23.17
2022-09-29T06:36:18.010Z,23.14
2022-09-29T06:37:16.088Z,23.17
2022-09-29T06:39:16.085Z,23.13
2022-09-29T06:40:11.345Z,23.14
2022-09-29T06:41:03.422Z,23.16
2022-09-29T06:42:01.255Z,23.17
2022-09-29T06:42:59.371Z,23.18
2022-09-29T06:43:51.473Z,23.16
2022-09-29T06:44:45.998Z,23.21
2022-09-29T06:45:40.373Z,23.20
2022-09-29T06:46:33.947Z,23.16
2022-09-29T06:47:28.225Z,23.19
2022-09-29T06:49:22.187Z,23.15
2022-09-29T06:50:16.366Z,23.16
2022-09-29T06:51:09.899Z,23.19
2022-09-29T06:52:12.551Z,23.19
2022-09-29T06:53:05.166Z,23.20
2022-09-29T06:54:07.646Z,23.16
2022-09-29T06:55:04.127Z,23.16
2022-09-29T06:55:58.716Z,23.16
2022-09-29T06:56:53.511Z,23.19
2022-09-29T06:57:52.501Z,23.20
2022-09-29T06:58:45.281Z,23.21
2022-09-29T06:59:39.137Z,23.17
2022-09-29T07:00:31.257Z,23.19
2022-09-29T07:01:26.722Z,23.18
2022-09-29T07:02:25.241Z,23.20
2022-09-29T07:03:18.956Z,23.24
2022-09-29T07:04:13.693Z,23.21
2022-09-29T07:05:08.775Z,23.22
2022-09-29T07:06:19.752Z,23.24
2022-09-29T07:07:18.608Z,23.24
2022-09-29T07:08:14.506Z,23.18
2022-09-29T07:09:11.146Z,23.21
2022-09-29T07:10:05.504Z,23.21
2022-09-29T07:10:59.931Z,23.24
2022-09-29T07:11:57.872Z,23.19
2022-09-29T07:12:49.815Z,23.19
2022-09-29T07:13:40.376Z,23.21
2022-09-29T07:14:30.985Z,23.21
2022-09-29T07:15:20.801Z,23.21
2022-09-29T07:16:15.415Z,23.20
2022-09-29T07:17:13.540Z,23.20
2022-09-29T07:18:08.891Z,23.25
2022-09-29T07:19:04.228Z,23.23
2022-09-29T07:19:57.639Z,23.19
2022-09-29T07:20:47.825Z,23.20
2022-09-29T07:21:40.928Z,23.21
2022-09-29T07:23:36.863Z,23.25
2022-09-29T07:24:29.588Z,23.24
2022-09-29T07:25:46.893Z,23.24
2022-09-29T07:26:34.395Z,23.26
2022-09-29T07:27:34.564Z,23.29
2022-09-29T07:28:28.012Z,23.31
2022-09-29T07:29:21.504Z,23.29
2022-09-29T07:30:17.588Z,23.29
2022-09-29T07:31:18.889Z,23.26
2022-09-29T07:32:26.107Z,23.31
2022-09-29T07:33:15.026Z,23.29
2022-09-29T07:34:07.832Z,23.32
2022-09-29T07:35:01.072Z,23.32
2022-09-29T07:35:55.119Z,23.31
2022-09-29T07:36:50.204Z,23.33
2022-09-29T07:37:49.285Z,23.32
2022-09-29T07:40:01.321Z,23.32
2022-09-29T07:40:53.846Z,23.33
2022-09-29T07:41:43.807Z,23.31
2022-09-29T07:42:36.280Z,23.33
2022-09-29T07:43:27.875Z,23.32
2022-09-29T07:44:18.648Z,23.33
2022-09-29T07:45:09.956Z,23.33
2022-09-29T07:46:01.788Z,23.31
2022-09-29T07:46:55.171Z,23.32
2022-09-29T07:48:53.429Z,23.33
2022-09-29T07:49:45.278Z,23.34
2022-09-29T07:50:36.362Z,23.32
2022-09-29T07:51:27.697Z,23.33
2022-09-29T07:52:23.784Z,23.33
2022-09-29T07:54:21.870Z,23.33
2022-09-29T07:55:16.699Z,23.33
2022-09-29T07:56:09.418Z,23.33
2022-09-29T07:56:59.996Z,23.35
2022-09-29T07:57:58.206Z,23.36
2022-09-29T07:59:47.319Z,23.33
2022-09-29T08:00:43.363Z,23.29
2022-09-29T08:01:34.811Z,23.27
2022-09-29T08:02:27.918Z,23.26
2022-09-29T08:03:24.711Z,23.30
2022-09-29T08:04:17.596Z,23.35
2022-09-29T08:05:12.915Z,23.36
2022-09-29T08:06:06.045Z,23.35
2022-09-29T08:06:58.179Z,23.37
2022-09-29T08:07:49.844Z,23.35
2022-09-29T08:09:48.310Z,23.33
2022-09-29T08:10:49.996Z,23.35
2022-09-29T08:11:45.704Z,23.34
2022-09-29T08:12:44.001Z,23.32
2022-09-29T08:13:41.773Z,23.33
2022-09-29T08:14:34.793Z,23.34
2022-09-29T08:15:27.554Z,23.36
2022-09-29T08:16:18.507Z,23.33
2022-09-29T08:17:12.924Z,23.28
2022-09-29T08:18:11.406Z,23.32
2022-09-29T08:19:03.711Z,23.32
2022-09-29T08:19:55.390Z,23.32
2022-09-29T08:20:50.266Z,23.31
2022-09-29T08:21:42.754Z,23.27
2022-09-29T08:22:36.020Z,23.29
2022-09-29T08:23:37.801Z,23.26
2022-09-29T08:24:32.672Z,23.24
2022-09-29T08:25:27.142Z,23.28
2022-09-29T08:26:19.199Z,23.28
2022-09-29T08:27:17.777Z,23.29
2022-09-29T08:28:24.074Z,23.34
2022-09-29T08:29:25.467Z,23.35
2022-09-29T08:30:19.202Z,23.33
2022-09-29T08:31:10.032Z,23.25
2022-09-29T08:32:05.902Z,23.27
2022-09-29T08:32:59.768Z,23.29
2022-09-29T08:33:58.130Z,23.31
2022-09-29T08:34:50.860Z,23.32
2022-09-29T08:35:45.135Z,23.33
2022-09-29T08:36:39.293Z,23.34
2022-09-29T08:37:35.099Z,23.34
2022-09-29T08:38:27.907Z,23.37
2022-09-29T08:40:25.380Z,23.35
2022-09-29T08:41:19.951Z,23.37
2022-09-29T08:42:13.081Z,23.38
2022-09-29T08:43:11.343Z,23.38
2022-09-29T08:44:18.528Z,23.35
2022-09-29T08:45:16.647Z,23.37
2022-09-29T08:46:12.077Z,23.39
2022-09-29T08:47:22.026Z,23.36
2022-09-29T08:48:23.323Z,23.38
2022-09-29T08:49:30.891Z,23.40
2022-09-29T08:50:16.798Z,23.39
2022-09-29T08:51:14.675Z,23.37
2022-09-29T08:52:16.450Z,23.40
2022-09-29T08:53:26.729Z,23.39
2022-09-29T08:54:35.498Z,23.36
2022-09-29T08:55:22.117Z,23.37
2022-09-29T08:56:12.036Z,23.38
2022-09-29T08:57:06.267Z,23.31
2022-09-29T08:58:01.593Z,23.37
2022-09-29T08:58:51.669Z,23.34
2022-09-29T08:59:39.018Z,23.40
2022-09-29T09:00:37.518Z,23.38
2022-09-29T09:01:35.206Z,23.37
2022-09-29T09:02:28.650Z,23.38
2022-09-29T09:03:21.215Z,23.38
2022-09-29T09:04:07.851Z,23.38
2022-09-29T09:04:49.228Z,23.37
2022-09-29T09:05:37.266Z,23.35
2022-09-29T09:06:40.728Z,23.37
2022-09-29T09:07:33.090Z,23.40
2022-09-29T09:08:25.991Z,23.39
2022-09-29T09:09:18.146Z,23.36
2022-09-29T09:10:02.095Z,23.32
2022-09-29T09:10:57.741Z,23.31
2022-09-29T09:11:43.710Z,23.32
2022-09-29T09:12:36.777Z,23.34
2022-09-29T09:13:29.416Z,23.35
2022-09-29T09:14:34.024Z,23.37
2022-09-29T09:15:33.218Z,23.35
2022-09-29T09:16:17.005Z,23.35
2022-09-29T09:17:03.844Z,23.35
2022-09-29T09:18:08.481Z,23.34
2022-09-29T09:20:17.817Z,23.38
2022-09-29T09:21:29.031Z,23.35
2022-09-29T09:22:14.591Z,23.37
2022-09-29T09:23:15.769Z,23.37
2022-09-29T09:24:20.354Z,23.33
2022-09-29T09:25:26.065Z,23.33
2022-09-29T09:26:20.641Z,23.36
2022-09-29T09:27:27.546Z,23.35
2022-09-29T09:28:22.604Z,23.35
2022-09-29T09:29:12.693Z,23.32
2022-09-29T09:30:05.889Z,23.32
2022-09-29T09:30:48.949Z,23.33
2022-09-29T09:31:39.349Z,23.35
2022-09-29T09:32:33.215Z,23.35
2022-09-29T09:33:32.429Z,23.34
2022-09-29T09:34:14.082Z,23.35
2022-09-29T09:35:21.825Z,23.37
2022-09-29T09:36:30.390Z,23.32
2022-09-29T09:37:26.624Z,23.38
2022-09-29T09:38:27.014Z,23.35
2022-09-29T09:39:28.524Z,23.37
2022-09-29T09:40:18.254Z,23.35
2022-09-29T09:41:10.239Z,23.35
2022-09-29T09:42:01.487Z,23.37
2022-09-29T09:42:56.142Z,23.38
2022-09-29T09:43:51.076Z,23.35
2022-09-29T09:44:50.330Z,23.34
2022-09-29T09:45:45.264Z,23.35
2022-09-29T09:46:38.107Z,23.35
2022-09-29T09:47:20.582Z,23.35
2022-09-29T09:48:31.409Z,23.37
2022-09-29T09:49:25.490Z,23.34
2022-09-29T09:50:26.506Z,23.34
2022-09-29T09:51:26.193Z,23.34
2022-09-29T09:52:34.180Z,23.32
2022-09-29T09:54:46.112Z,23.33
2022-09-29T09:55:38.033Z,23.35
2022-09-29T09:56:19.155Z,23.34
2022-09-29T09:57:11.619Z,23.35
2022-09-29T09:58:08.365Z,23.29
2022-09-29T09:59:13.441Z,23.33
2022-09-29T09:59:56.591Z,23.35
2022-09-29T10:00:54.261Z,23.35
2022-09-29T10:01:45.498Z,23.38
2022-09-29T10:02:35.633Z,23.42
2022-09-29T10:03:26.627Z,23.34
2022-09-29T10:04:24.664Z,23.32
2022-09-29T10:05:16.687Z,23.31
2022-09-29T10:06:08.890Z,23.32
2022-09-29T10:07:02.874Z,23.28
2022-09-29T10:07:57.930Z,23.31
2022-09-29T10:08:49.347Z,23.35
2022-09-29T10:10:57.447Z,23.34
2022-09-29T10:11:50.937Z,23.30
2022-09-29T10:12:44.952Z,23.28
2022-09-29T10:13:42.683Z,23.29
2022-09-29T10:14:36.651Z,23.30
2022-09-29T10:15:30.187Z,23.28
2022-09-29T10:16:16.507Z,23.30
2022-09-29T10:17:10.811Z,23.33
2022-09-29T10:18:03.992Z,23.32
2022-09-29T10:19:52.842Z,23.39
2022-09-29T10:20:49.285Z,23.34
2022-09-29T10:21:30.562Z,23.42
2022-09-29T10:22:29.740Z,23.37
2022-09-29T10:23:36.556Z,23.37
2022-09-29T10:24:34.460Z,23.38
2022-09-29T10:25:34.519Z,23.40
2022-09-29T10:26:30.474Z,23.36
2022-09-29T10:27:24.434Z,23.37
2022-09-29T10:28:21.030Z,23.34
2022-09-29T10:29:24.958Z,23.31
2022-09-29T10:30:19.408Z,23.37
2022-09-29T10:31:13.436Z,23.38
2022-09-29T10:32:22.601Z,23.35
2022-09-29T10:33:14.080Z,23.28
2022-09-29T10:34:19.698Z,23.32
2022-09-29T10:35:10.787Z,23.35
2022-09-29T10:36:01.026Z,23.40
2022-09-29T10:37:04.434Z,23.40
2022-09-29T10:37:55.508Z,23.37
2022-09-29T10:38:46.113Z,23.40
2022-09-29T10:39:40.628Z,23.37
2022-09-29T10:40:32.825Z,23.42
2022-09-29T10:41:22.990Z,23.30
2022-09-29T10:42:17.071Z,23.34
2022-09-29T10:43:09.260Z,23.31
2022-09-29T10:44:03.419Z,23.32
2022-09-29T10:44:55.467Z,23.39
2022-09-29T10:45:47.659Z,23.40
2022-09-29T10:46:49.890Z,23.41
2022-09-29T10:47:42.756Z,23.37
2022-09-29T10:48:39.295Z,23.43
2022-09-29T10:49:39.333Z,23.40
2022-09-29T10:50:34.892Z,23.38
2022-09-29T10:51:27.880Z,23.37
2022-09-29T10:52:19.120Z,23.37
2022-09-29T10:53:13.165Z,23.40
2022-09-29T10:54:04.202Z,23.39
2022-09-29T10:55:09.392Z,23.34
2022-09-29T10:56:05.613Z,23.39
2022-09-29T10:56:58.765Z,23.35
2022-09-29T10:57:50.972Z,23.39
2022-09-29T10:58:53.189Z,23.40
2022-09-29T10:59:43.880Z,23.43
2022-09-29T11:00:53.289Z,23.42
2022-09-29T11:01:42.718Z,23.42
2022-09-29T11:02:34.524Z,23.39
2022-09-29T11:03:19.392Z,23.34
2022-09-29T11:04:08.038Z,23.36
2022-09-29T11:04:58.770Z,23.38
2022-09-29T11:05:49.169Z,23.37
2022-09-29T11:06:43.845Z,23.43
2022-09-29T11:07:33.505Z,23.44
2022-09-29T11:08:24.322Z,23.46
2022-09-29T11:09:37.648Z,23.43
2022-09-29T11:10:42.088Z,23.44
2022-09-29T11:11:34.784Z,23.43
2022-09-29T11:12:45.038Z,23.41
2022-09-29T11:13:28.425Z,23.39
2022-09-29T11:14:20.554Z,23.37
2022-09-29T11:15:19.312Z,23.37
2022-09-29T11:16:16.360Z,23.37
2022-09-29T11:17:07.886Z,23.34
2022-09-29T11:17:59.950Z,23.36
2022-09-29T11:18:54.071Z,23.36
2022-09-29T11:19:47.512Z,23.37
2022-09-29T11:20:39.397Z,23.34
2022-09-29T11:21:24.839Z,23.34
2022-09-29T11:22:12.898Z,23.34
2022-09-29T11:23:09.577Z,23.34
2022-09-29T11:24:10.068Z,23.36
2022-09-29T11:25:10.389Z,23.35
2022-09-29T11:25:58.645Z,23.34
2022-09-29T11:26:58.965Z,23.34
2022-09-29T11:27:47.213Z,23.37
2022-09-29T11:28:44.720Z,23.37
2022-09-29T11:29:47.899Z,23.37
2022-09-29T11:30:43.904Z,23.39
2022-09-29T11:31:48.789Z,23.39
2022-09-29T11:32:37.687Z,23.41
2022-09-29T11:33:41.815Z,23.37
2022-09-29T11:34:24.956Z,23.38
2022-09-29T11:35:25.669Z,23.37
2022-09-29T11:36:21.080Z,23.40
2022-09-29T11:37:28.749Z,23.40
2022-09-29T11:38:24.131Z,23.39
2022-09-29T11:39:13.865Z,23.36
2022-09-29T11:40:13.293Z,23.36
2022-09-29T11:41:18.605Z,23.41
2022-09-29T11:42:23.012Z,23.43
2022-09-29T11:43:17.160Z,23.42
2022-09-29T11:44:10.005Z,23.40
2022-09-29T11:45:09.077Z,23.44
2022-09-29T11:46:01.787Z,23.44
2022-09-29T11:46:55.612Z,23.37
2022-09-29T11:47:58.981Z,23.42
2022-09-29T11:48:47.184Z,23.44
2022-09-29T11:49:32.456Z,23.44
2022-09-29T11:50:32.658Z,23.45
2022-09-29T11:51:29.297Z,23.41
2022-09-29T11:52:15.485Z,23.44
2022-09-29T11:53:12.635Z,23.43
2022-09-29T11:54:00.809Z,23.41
2022-09-29T11:55:02.929Z,23.40
2022-09-29T11:56:00.567Z,23.43
2022-09-29T11:56:59.270Z,23.41